Time;durP1;ratioP1;P1;durP2;ratioP2;P2;SDS_P1;SDS_P2;PMS_P1;PMS_P2;Temp;Humidity;BMP_temperature;BMP_pressure;BME280_temperature;BME280_humidity;BME280_pressure;Samples;Min_cycle;Max_cycle;Signal;HPM_P1;HPM_P2
2023/07/23 00:00:24;;;;;;;9.20;5.10;;;;;;;26.96;nan;62446.25;5074570;28;20204;-69
2023/07/23 00:02:50;;;;;;;10.00;5.20;;;;;;;26.95;nan;62479.22;5092711;28;20573;-68
2023/07/23 00:05:16;;;;;;;11.00;5.43;;;;;;;26.97;nan;62504.53;5092275;28;20217;-70
2023/07/23 00:07:41;;;;;;;9.45;5.30;;;;;;;27.02;nan;62505.00;5092312;28;20172;-68
2023/07/23 00:10:09;;;;;;;12.05;5.03;;;;;;;27.03;nan;62504.09;5092831;28;20169;-70
2023/07/23 00:12:35;;;;;;;12.07;4.93;;;;;;;26.90;nan;62617.19;5092342;28;20558;-69
2023/07/23 00:15:00;;;;;;;11.10;5.78;;;;;;;27.04;nan;62515.75;5092351;28;20187;-69
2023/07/23 00:17:25;;;;;;;9.52;4.93;;;;;;;26.77;nan;62608.66;5092577;28;20208;-68
2023/07/23 00:19:51;;;;;;;12.10;4.75;;;;;;;26.81;nan;62473.69;5092146;28;20280;-69
2023/07/23 00:22:16;;;;;;;13.60;5.30;;;;;;;26.47;nan;62461.03;5092154;28;20169;-70
2023/07/23 00:24:43;;;;;;;12.38;5.88;;;;;;;26.67;nan;62544.78;5092294;28;20161;-68
2023/07/23 00:27:10;;;;;;;14.38;6.05;;;;;;;26.40;nan;62553.22;5092425;28;20659;-70
2023/07/23 00:29:35;;;;;;;10.13;6.10;;;;;;;26.40;nan;62492.94;5092482;28;20169;-69
2023/07/23 00:32:01;;;;;;;10.05;5.60;;;;;;;26.21;nan;62508.47;5092277;28;20256;-70
2023/07/23 00:34:26;;;;;;;11.68;5.68;;;;;;;26.42;nan;62465.81;5092262;28;20222;-69
2023/07/23 00:36:51;;;;;;;13.13;6.22;;;;;;;26.41;nan;62472.53;5091916;28;20177;-67
2023/07/23 00:39:17;;;;;;;11.07;5.70;;;;;;;26.41;nan;62530.19;5091198;28;20280;-69
2023/07/23 00:41:42;;;;;;;12.40;5.60;;;;;;;26.42;nan;62455.31;5092283;28;20173;-69
2023/07/23 00:44:07;;;;;;;12.73;6.30;;;;;;;26.20;nan;62467.41;5091549;28;20165;-70
2023/07/23 00:46:33;;;;;;;11.93;5.63;;;;;;;26.16;nan;62502.16;5074403;28;20189;-70
2023/07/23 00:49:01;;;;;;;10.38;5.50;;;;;;;26.44;nan;62497.50;5087013;28;20256;-70
2023/07/23 00:51:29;;;;;;;11.68;5.25;;;;;;;26.44;nan;62418.31;5071940;28;20198;-71
2023/07/23 00:53:54;;;;;;;8.68;5.38;;;;;;;26.11;nan;62488.56;5082584;28;20582;-69
2023/07/23 00:56:20;;;;;;;8.98;5.60;;;;;;;26.65;nan;62523.56;5091903;28;20170;-70
2023/07/23 00:58:47;;;;;;;13.38;5.63;;;;;;;26.48;nan;62454.91;5091968;28;20276;-69
2023/07/23 01:01:13;;;;;;;8.90;5.43;;;;;;;23.45;nan;63965.53;5073964;28;20165;-70
2023/07/23 01:03:38;;;;;;;11.55;5.38;;;;;;;26.16;nan;62416.25;5091551;28;20204;-69
2023/07/23 01:06:04;;;;;;;9.23;5.50;;;;;;;26.31;nan;62436.03;5092758;28;20213;-69
2023/07/23 01:08:32;;;;;;;10.93;5.65;;;;;;;26.20;nan;62407.72;5092145;28;20180;-71
2023/07/23 01:10:58;;;;;;;13.10;5.75;;;;;;;25.99;nan;62682.34;5091833;28;20178;-68
2023/07/23 01:13:24;;;;;;;8.13;5.20;;;;;;;25.99;nan;62580.19;5091847;28;20170;-69
2023/07/23 01:15:50;;;;;;;14.00;5.30;;;;;;;25.90;nan;62679.88;5073627;28;20177;-67
2023/07/23 01:18:17;;;;;;;11.15;5.47;;;;;;;26.07;nan;62486.63;5091840;28;20180;-68
2023/07/23 01:20:43;;;;;;;14.88;6.10;;;;;;;26.03;nan;62477.38;5091952;28;20295;-69
2023/07/23 01:23:08;;;;;;;10.55;5.72;;;;;;;25.81;nan;62496.72;5091680;28;20290;-69
2023/07/23 01:25:34;;;;;;;12.20;4.82;;;;;;;25.96;nan;62406.50;5091925;28;20174;-69
2023/07/23 01:27:59;;;;;;;10.93;5.28;;;;;;;25.85;nan;62412.84;5092032;28;20582;-69
2023/07/23 01:30:24;;;;;;;13.10;5.13;;;;;;;25.87;nan;62456.47;5091696;28;20165;-68
2023/07/23 01:32:50;;;;;;;14.95;6.00;;;;;;;25.86;nan;62329.63;5091897;28;20181;-68
2023/07/23 01:35:17;;;;;;;11.48;5.25;;;;;;;25.19;nan;62238.63;5091933;28;20204;-68
2023/07/23 01:37:47;;;;;;;12.20;5.35;;;;;;;25.85;nan;62373.56;5091646;28;20546;-68
2023/07/23 01:40:13;;;;;;;13.40;5.25;;;;;;;25.65;nan;62295.19;5091506;28;20201;-70
2023/07/23 01:42:38;;;;;;;10.05;5.53;;;;;;;25.87;nan;62480.03;5091715;28;20180;-68
2023/07/23 01:45:04;;;;;;;13.52;5.57;;;;;;;25.78;nan;62464.50;5091865;28;20166;-68
2023/07/23 01:47:30;;;;;;;11.95;5.25;;;;;;;25.81;nan;62431.25;5091007;28;20260;-71
2023/07/23 01:49:55;;;;;;;14.27;5.20;;;;;;;25.85;nan;62372.97;5091572;28;20177;-70
2023/07/23 01:52:21;;;;;;;15.05;5.40;;;;;;;25.23;nan;62253.66;5095362;28;20658;-70
2023/07/23 01:54:46;;;;;;;9.23;4.70;;;;;;;25.77;nan;62463.94;5095305;28;20162;-71
2023/07/23 01:57:12;;;;;;;12.55;5.20;;;;;;;25.84;nan;62345.69;5079123;28;20204;-70
2023/07/23 01:59:37;;;;;;;9.02;4.97;;;;;;;25.80;nan;62479.88;5089786;28;20250;-70
2023/07/23 02:02:06;;;;;;;9.93;5.20;;;;;;;25.73;nan;62443.66;4898391;28;20815;-68
2023/07/23 02:04:31;;;;;;;12.75;5.15;;;;;;;25.93;nan;62460.72;4916386;28;20597;-68
2023/07/23 02:06:57;;;;;;;7.07;4.43;;;;;;;25.74;nan;62465.75;5090040;28;20174;-69
2023/07/23 02:09:22;;;;;;;7.38;4.32;;;;;;;25.95;nan;62463.56;5082239;28;20177;-69
2023/07/23 02:11:47;;;;;;;10.45;4.88;;;;;;;25.82;nan;62469.66;5076104;28;20178;-70
2023/07/23 02:14:13;;;;;;;7.18;4.70;;;;;;;26.06;nan;62493.91;5090342;28;20178;-69
2023/07/23 02:16:38;;;;;;;8.20;4.60;;;;;;;25.85;nan;62415.47;5073574;28;20189;-69
2023/07/23 02:19:04;;;;;;;11.20;4.72;;;;;;;25.77;nan;62539.28;5074015;28;20213;-70
2023/07/23 02:21:29;;;;;;;10.27;4.45;;;;;;;25.79;nan;62322.22;5081499;28;20210;-66
2023/07/23 02:23:55;;;;;;;7.35;4.75;;;;;;;25.78;nan;62480.22;5085994;28;20184;-68
2023/07/23 02:26:20;;;;;;;10.23;5.03;;;;;;;25.73;nan;62375.56;5077156;28;20178;-70
2023/07/23 02:28:45;;;;;;;11.38;5.38;;;;;;;25.92;nan;62423.47;5084817;28;20200;-68
2023/07/23 02:31:11;;;;;;;10.00;5.13;;;;;;;25.96;nan;62359.38;5081853;28;20186;-70
2023/07/23 02:33:37;;;;;;;11.27;4.95;;;;;;;25.91;nan;62372.00;5074374;28;20256;-68
2023/07/23 02:36:02;;;;;;;9.88;5.03;;;;;;;26.20;nan;62412.41;5091974;28;20181;-68
2023/07/23 02:38:28;;;;;;;11.25;5.55;;;;;;;25.93;nan;62481.66;5094465;28;20180;-69
2023/07/23 02:40:58;;;;;;;10.07;4.90;;;;;;;25.85;nan;62336.91;5094215;28;20205;-68
2023/07/23 02:43:23;;;;;;;11.18;4.95;;;;;;;26.03;nan;62419.75;5094629;28;20180;-68
2023/07/23 02:45:49;;;;;;;11.32;4.97;;;;;;;26.33;nan;62482.88;5094267;28;20548;-68
2023/07/23 02:48:15;;;;;;;15.70;5.00;;;;;;;26.51;nan;62782.81;5077858;28;20231;-68
2023/07/23 02:50:40;;;;;;;8.35;4.68;;;;;;;26.26;nan;62414.63;5074069;28;20186;-70
2023/07/23 02:53:06;;;;;;;11.68;4.93;;;;;;;25.74;nan;62292.38;5079642;28;20669;-70
2023/07/23 02:55:32;;;;;;;9.55;5.47;;;;;;;25.59;nan;62364.25;5090070;28;20562;-70
2023/07/23 02:58:00;;;;;;;10.25;5.15;;;;;;;25.66;nan;62370.22;5075022;28;20181;-71
2023/07/23 03:00:27;;;;;;;10.23;5.30;;;;;;;25.32;nan;62316.22;5072878;28;20661;-68
2023/07/23 03:02:53;;;;;;;15.88;5.38;;;;;;;25.22;nan;62213.25;5083400;28;20212;-67
2023/07/23 03:05:19;;;;;;;9.93;5.63;;;;;;;25.25;nan;62344.31;5080022;28;20312;-68
2023/07/23 03:07:44;;;;;;;12.15;6.07;;;;;;;25.11;nan;62423.03;5073655;28;20322;-70
2023/07/23 03:10:09;;;;;;;13.23;4.93;;;;;;;25.25;nan;62247.50;5091783;28;20223;-69
2023/07/23 03:12:35;;;;;;;8.90;4.55;;;;;;;25.05;nan;62354.00;5093469;28;20177;-69
2023/07/23 03:15:00;;;;;;;18.17;6.45;;;;;;;25.02;nan;62193.06;5093239;28;20165;-70
2023/07/23 03:17:26;;;;;;;7.53;4.57;;;;;;;25.42;nan;62413.44;5084831;28;20649;-70
2023/07/23 03:19:52;;;;;;;9.68;4.53;;;;;;;25.51;nan;62347.81;5083833;28;20691;-68
2023/07/23 03:22:18;;;;;;;9.68;4.80;;;;;;;25.42;nan;62418.66;5080237;28;20182;-69
2023/07/23 03:24:44;;;;;;;8.82;4.18;;;;;;;26.05;nan;62500.63;5072592;28;20189;-70
2023/07/23 03:27:10;;;;;;;9.90;5.20;;;;;;;26.25;nan;62633.59;5086280;28;20188;-68
2023/07/23 03:29:35;;;;;;;6.53;4.43;;;;;;;26.43;nan;62430.84;5071440;28;20216;-70
2023/07/23 03:32:01;;;;;;;7.63;5.07;;;;;;;26.72;nan;62492.81;5071934;28;20185;-68
2023/07/23 03:34:26;;;;;;;7.85;4.80;;;;;;;27.19;nan;62561.75;5093443;28;20314;-69
2023/07/23 03:36:52;;;;;;;10.63;5.38;;;;;;;27.31;nan;62674.66;5093483;28;20256;-69
2023/07/23 03:39:18;;;;;;;9.10;5.18;;;;;;;27.91;nan;62643.03;5093003;28;20253;-70
2023/07/23 03:41:47;;;;;;;13.77;5.50;;;;;;;28.22;nan;62816.72;5093040;28;20200;-70
2023/07/23 03:44:12;;;;;;;9.35;5.32;;;;;;;28.69;nan;62772.78;5092842;28;20170;-71
2023/07/23 03:47:00;;;;;;;8.93;4.70;;;;;;;29.20;nan;62991.31;5093062;28;20166;-69
2023/07/23 03:49:26;;;;;;;9.57;5.30;;;;;;;29.74;nan;63021.25;5093060;28;20197;-71
2023/07/23 03:51:51;;;;;;;9.70;4.78;;;;;;;30.53;nan;63076.72;5092864;28;20200;-69
2023/07/23 03:54:17;;;;;;;11.38;5.50;;;;;;;31.21;nan;63164.41;5092684;28;20698;-69
2023/07/23 03:56:42;;;;;;;9.63;4.60;;;;;;;31.88;nan;63254.81;5092512;28;20171;-70
2023/07/23 03:59:07;;;;;;;14.70;4.75;;;;;;;32.21;nan;63355.22;5092607;28;20219;-71
2023/07/23 04:01:33;;;;;;;13.50;4.95;;;;;;;32.84;nan;63528.59;5093093;28;20201;-69
2023/07/23 04:03:59;;;;;;;10.93;4.97;;;;;;;33.33;nan;63591.50;5079627;28;20231;-69
2023/07/23 04:06:26;;;;;;;13.52;5.30;;;;;;;33.56;nan;63623.97;5070862;28;20299;-70
2023/07/23 04:08:52;;;;;;;10.10;5.30;;;;;;;34.05;nan;63749.13;5081068;28;20176;-70
2023/07/23 04:11:17;;;;;;;7.93;4.68;;;;;;;34.74;nan;63784.91;5080913;28;20268;-70
2023/07/23 04:13:42;;;;;;;14.88;5.18;;;;;;;35.05;nan;64019.63;5072357;28;20227;-69
2023/07/23 04:16:11;;;;;;;9.82;4.88;;;;;;;35.41;nan;63920.53;5074133;28;20180;-68
2023/07/23 04:18:51;;;;;;;10.60;5.13;;;;;;;36.02;nan;63950.84;5088694;28;20259;-70
2023/07/23 04:21:21;;;;;;;10.82;5.50;;;;;;;35.76;nan;64160.78;5034683;28;20548;-70
2023/07/23 04:23:51;;;;;;;11.98;5.00;;;;;;;35.90;nan;64056.69;5063887;28;20173;-69
2023/07/23 04:26:18;;;;;;;8.00;4.65;;;;;;;36.34;nan;64251.16;5092611;28;20188;-69
2023/07/23 04:28:44;;;;;;;11.43;4.70;;;;;;;36.27;nan;64328.25;5092581;28;20184;-69
2023/07/23 04:31:10;;;;;;;10.00;4.32;;;;;;;36.08;nan;64013.13;5077235;28;20249;-68
2023/07/23 04:33:36;;;;;;;11.10;4.28;;;;;;;36.17;nan;64080.13;5080030;28;20233;-67
2023/07/23 04:36:03;;;;;;;12.35;4.47;;;;;;;35.72;nan;64012.41;5081965;28;20173;-69
2023/07/23 04:38:28;;;;;;;6.85;4.43;;;;;;;34.92;nan;63806.34;5071856;28;20231;-67
2023/07/23 04:40:54;;;;;;;9.15;4.13;;;;;;;34.85;nan;63830.13;5087132;28;20200;-67
2023/07/23 04:43:19;;;;;;;9.05;3.50;;;;;;;34.97;nan;63897.19;5092073;28;20569;-69
2023/07/23 04:45:45;;;;;;;6.13;3.95;;;;;;;34.82;nan;63695.84;5092186;28;20199;-70
2023/07/23 04:48:12;;;;;;;8.10;3.67;;;;;;;34.67;nan;63861.81;5092209;28;20169;-69
2023/07/23 04:50:38;;;;;;;7.43;3.58;;;;;;;34.05;nan;63741.16;5091796;28;20180;-69
2023/07/23 04:53:03;;;;;;;8.82;3.60;;;;;;;33.61;nan;63761.78;5091865;28;20172;-68
2023/07/23 04:55:28;;;;;;;9.25;3.70;;;;;;;33.42;nan;63564.78;5073894;28;20270;-68
2023/07/23 04:57:54;;;;;;;6.38;3.10;;;;;;;33.49;nan;63629.13;5091935;28;20172;-69
2023/07/23 05:00:19;;;;;;;5.07;3.40;;;;;;;33.18;nan;63474.59;5084671;28;20205;-69
2023/07/23 05:02:45;;;;;;;7.78;3.90;;;;;;;33.51;nan;63570.47;5080353;28;20184;-69
2023/07/23 05:05:10;;;;;;;9.77;3.95;;;;;;;32.97;nan;63569.53;5080453;28;20216;-70
2023/07/23 05:07:35;;;;;;;8.43;3.55;;;;;;;32.77;nan;63507.25;5071500;28;20226;-69
2023/07/23 05:10:01;;;;;;;9.13;3.42;;;;;;;32.69;nan;63672.81;5088010;28;20696;-68
2023/07/23 05:12:27;;;;;;;8.25;3.75;;;;;;;32.60;nan;63415.53;5091695;28;20181;-68
2023/07/23 05:14:54;;;;;;;6.47;3.78;;;;;;;33.26;nan;63636.97;5091922;28;20175;-69
2023/07/23 05:17:19;;;;;;;6.07;3.45;;;;;;;32.54;nan;63395.34;5092060;28;20177;-68
2023/07/23 05:19:45;;;;;;;6.13;3.17;;;;;;;31.69;nan;63303.72;5089657;28;20704;-68
2023/07/23 05:22:10;;;;;;;8.45;3.40;;;;;;;32.13;nan;63316.88;5074810;28;20200;-68
2023/07/23 05:24:35;;;;;;;8.20;3.30;;;;;;;31.69;nan;63298.44;5085234;28;20177;-69
2023/07/23 05:27:01;;;;;;;8.60;3.50;;;;;;;31.89;nan;63501.34;5074292;28;20528;-68
2023/07/23 05:29:26;;;;;;;7.20;3.50;;;;;;;31.73;nan;63273.97;5086381;28;20271;-70
2023/07/23 05:31:52;;;;;;;6.65;3.28;;;;;;;31.60;nan;63201.41;5077267;28;20188;-70
2023/07/23 05:34:17;;;;;;;6.18;3.53;;;;;;;31.50;nan;63253.88;5073879;28;20763;-70
2023/07/23 05:36:43;;;;;;;9.27;3.25;;;;;;;31.27;nan;63150.16;5075009;28;20169;-70
2023/07/23 05:39:11;;;;;;;7.88;3.25;;;;;;;30.88;nan;63163.94;5084014;28;20283;-69
2023/07/23 05:41:36;;;;;;;8.02;3.78;;;;;;;30.61;nan;63046.91;5095761;28;20173;-69
2023/07/23 05:44:02;;;;;;;6.95;3.47;;;;;;;30.52;nan;63218.63;5077069;28;20229;-70
2023/07/23 05:46:27;;;;;;;5.72;3.38;;;;;;;30.93;nan;63211.94;5095223;28;20179;-69
2023/07/23 05:48:52;;;;;;;6.55;3.38;;;;;;;30.89;nan;63118.13;5095321;28;20182;-69
2023/07/23 05:51:18;;;;;;;8.02;3.50;;;;;;;30.82;nan;63188.72;5094904;28;20612;-70
2023/07/23 05:53:43;;;;;;;9.60;3.28;;;;;;;30.48;nan;63047.22;5095005;28;20176;-71
2023/07/23 05:56:09;;;;;;;6.13;3.40;;;;;;;30.39;nan;63007.81;5095079;28;20173;-70
2023/07/23 05:58:34;;;;;;;8.10;3.45;;;;;;;30.81;nan;63035.00;5095659;28;20176;-68
2023/07/23 06:00:59;;;;;;;5.85;3.60;;;;;;;30.51;nan;63145.69;5094962;28;20200;-69
2023/07/23 06:03:25;;;;;;;8.43;3.90;;;;;;;30.82;nan;63362.97;5094799;28;20254;-70
2023/07/23 06:05:50;;;;;;;7.75;3.55;;;;;;;30.69;nan;63122.09;5095340;28;20243;-68
2023/07/23 06:08:16;;;;;;;5.75;3.63;;;;;;;30.66;nan;63145.03;5076853;28;20565;-70
2023/07/23 06:10:41;;;;;;;7.72;4.10;;;;;;;30.79;nan;63042.72;5094910;28;20169;-69
2023/07/23 06:13:07;;;;;;;5.95;3.45;;;;;;;30.90;nan;63238.09;5094606;28;20226;-69
2023/07/23 06:15:32;;;;;;;10.48;3.63;;;;;;;31.07;nan;63191.72;5094723;28;20164;-69
2023/07/23 06:17:57;;;;;;;11.00;3.90;;;;;;;31.00;nan;63133.44;5094629;28;20169;-71
2023/07/23 06:20:23;;;;;;;9.57;3.50;;;;;;;30.92;nan;63118.38;5094641;28;20196;-70
2023/07/23 06:22:48;;;;;;;9.30;4.50;;;;;;;30.80;nan;63181.13;5083698;28;20177;-69
2023/07/23 06:25:14;;;;;;;7.38;3.92;;;;;;;30.98;nan;63170.19;5078499;28;20212;-70
2023/07/23 06:27:40;;;;;;;7.82;3.75;;;;;;;31.45;nan;63271.31;5076411;28;20694;-69
2023/07/23 06:30:06;;;;;;;8.60;3.72;;;;;;;31.38;nan;63266.47;5092664;28;20191;-69
2023/07/23 06:32:31;;;;;;;8.68;4.05;;;;;;;31.36;nan;63231.88;5074245;28;20557;-70
2023/07/23 06:34:57;;;;;;;7.93;4.03;;;;;;;31.30;nan;63153.63;5080064;28;20264;-71
2023/07/23 06:37:22;;;;;;;10.57;3.90;;;;;;;31.16;nan;63253.75;5094093;28;20583;-71
2023/07/23 06:39:48;;;;;;;9.55;4.70;;;;;;;31.55;nan;63357.47;5094587;28;20287;-69
2023/07/23 06:42:13;;;;;;;6.75;4.47;;;;;;;31.79;nan;63569.69;5094560;28;20218;-70
2023/07/23 06:44:41;;;;;;;8.27;3.85;;;;;;;31.91;nan;63342.31;5085379;28;20173;-70
2023/07/23 06:47:07;;;;;;;8.55;3.95;;;;;;;32.07;nan;63323.75;5067507;28;20559;-70
2023/07/23 06:49:32;;;;;;;6.88;4.10;;;;;;;31.91;nan;63305.28;5080122;28;20178;-70
2023/07/23 06:51:58;;;;;;;7.80;3.45;;;;;;;32.26;nan;63398.59;5074474;28;20260;-72
2023/07/23 06:54:24;;;;;;;11.32;4.20;;;;;;;32.53;nan;63479.50;5085682;28;20178;-70
2023/07/23 06:56:54;;;;;;;8.10;4.22;;;;;;;32.50;nan;63502.50;5072542;28;20185;-71
2023/07/23 06:59:20;;;;;;;7.47;4.00;;;;;;;32.19;nan;63419.03;5072688;28;20201;-69
2023/07/23 07:01:45;;;;;;;7.88;4.35;;;;;;;32.36;nan;63476.31;5089835;28;20229;-69
2023/07/23 07:04:11;;;;;;;7.68;3.85;;;;;;;32.18;nan;63405.25;5074535;28;20315;-71
2023/07/23 07:06:36;;;;;;;8.77;3.72;;;;;;;32.10;nan;63351.03;5073097;28;20192;-69
2023/07/23 07:09:02;;;;;;;9.43;4.00;;;;;;;32.51;nan;63466.03;5083380;28;20264;-70
2023/07/23 07:11:27;;;;;;;9.05;3.75;;;;;;;32.43;nan;63370.56;5081285;28;20374;-70
2023/07/23 07:13:53;;;;;;;7.97;4.15;;;;;;;32.31;nan;63446.16;5073502;28;20169;-68
2023/07/23 07:16:20;;;;;;;7.65;4.32;;;;;;;32.08;nan;63285.22;5090712;28;20172;-70
2023/07/23 07:18:45;;;;;;;8.02;4.03;;;;;;;32.36;nan;63428.69;5074973;28;20259;-70
2023/07/23 07:21:11;;;;;;;6.78;4.18;;;;;;;32.48;nan;63377.84;5093570;28;20173;-68
2023/07/23 07:23:36;;;;;;;8.77;3.88;;;;;;;32.39;nan;63471.84;5075422;28;20545;-71
2023/07/23 07:26:01;;;;;;;7.63;3.70;;;;;;;32.12;nan;63331.59;5093712;28;20218;-71
2023/07/23 07:28:29;;;;;;;6.75;3.97;;;;;;;32.44;nan;63517.31;5093434;28;20695;-70
2023/07/23 07:30:59;;;;;;;11.82;4.30;;;;;;;32.68;nan;63459.78;5093428;28;20637;-70
2023/07/23 07:33:25;;;;;;;6.72;3.55;;;;;;;32.73;nan;63476.16;5093099;28;20173;-69
2023/07/23 07:35:55;;;;;;;6.03;3.60;;;;;;;32.52;nan;63441.28;5075656;28;20271;-70
2023/07/23 07:38:20;;;;;;;6.15;4.20;;;;;;;32.62;nan;63500.50;5074974;28;20177;-69
2023/07/23 07:40:48;;;;;;;6.65;3.70;;;;;;;32.80;nan;63704.06;5092950;28;20200;-68
2023/07/23 07:43:13;;;;;;;8.20;4.32;;;;;;;32.85;nan;63399.38;5093147;28;20164;-69
2023/07/23 07:45:39;;;;;;;6.95;4.00;;;;;;;33.20;nan;63521.94;5093138;28;20218;-69
2023/07/23 07:48:04;;;;;;;8.77;3.80;;;;;;;33.18;nan;63485.19;5092542;28;20169;-68
2023/07/23 07:50:30;;;;;;;6.30;4.00;;;;;;;32.92;nan;63598.19;5093173;28;20610;-68
2023/07/23 07:52:55;;;;;;;10.63;3.50;;;;;;;33.09;nan;63525.13;5092993;28;20230;-71
2023/07/23 07:55:21;;;;;;;13.63;4.28;;;;;;;33.40;nan;63605.47;5092904;28;20180;-68
2023/07/23 07:57:46;;;;;;;6.82;3.92;;;;;;;33.61;nan;63682.81;5093049;28;20169;-68
2023/07/23 08:00:12;;;;;;;6.70;3.60;;;;;;;33.51;nan;63647.38;5092947;28;20277;-70
2023/07/23 08:02:39;;;;;;;8.38;4.07;;;;;;;33.52;nan;63741.34;5074476;28;20164;-70
2023/07/23 08:05:05;;;;;;;8.30;3.85;;;;;;;33.05;nan;63512.53;5092947;28;20226;-68
2023/07/23 08:07:31;;;;;;;9.23;3.60;;;;;;;33.46;nan;63609.16;5093229;28;20638;-69
2023/07/23 08:09:59;;;;;;;5.78;3.80;;;;;;;33.60;nan;63625.38;5092607;28;20173;-67
2023/07/23 08:12:24;;;;;;;7.60;3.90;;;;;;;33.43;nan;63555.34;5092794;28;20192;-70
2023/07/23 08:14:52;;;;;;;8.18;3.78;;;;;;;33.60;nan;63617.41;5092642;28;20172;-68
2023/07/23 08:17:18;;;;;;;6.72;4.00;;;;;;;33.67;nan;63681.81;5092433;28;20172;-69
2023/07/23 08:19:44;;;;;;;7.93;3.65;;;;;;;33.73;nan;63855.31;5092504;28;20204;-67
2023/07/23 08:22:09;;;;;;;9.70;5.03;;;;;;;33.92;nan;63635.31;5092371;28;20203;-70
2023/07/23 08:24:35;;;;;;;5.00;3.55;;;;;;;33.81;nan;63683.59;5074165;28;20177;-69
2023/07/23 08:27:03;;;;;;;5.63;3.15;;;;;;;34.06;nan;63659.47;5092652;28;20201;-69
2023/07/23 08:29:29;;;;;;;7.53;3.50;;;;;;;34.01;nan;63662.22;5092035;28;20179;-69
2023/07/23 08:31:59;;;;;;;7.30;3.70;;;;;;;33.97;nan;63611.91;5074159;28;20268;-68
2023/07/23 08:34:26;;;;;;;6.05;3.30;;;;;;;34.09;nan;63719.25;5092508;28;20160;-68
2023/07/23 08:36:51;;;;;;;13.15;4.57;;;;;;;33.86;nan;63623.06;5074783;28;20487;-69
2023/07/23 08:39:17;;;;;;;9.75;3.65;;;;;;;34.11;nan;63723.66;5073902;28;20192;-68
2023/07/23 08:42:10;;;;;;;7.28;3.58;;;;;;;34.23;nan;63737.56;5092030;28;20172;-69
2023/07/23 08:44:35;;;;;;;6.07;3.78;;;;;;;34.00;nan;63663.72;5092828;28;20264;-70
2023/07/23 08:47:11;;;;;;;6.13;3.83;;;;;;;33.78;nan;63617.03;5092200;28;20251;-70
2023/07/23 08:49:40;;;;;;;7.38;3.85;;;;;;;33.94;nan;63603.13;5092259;28;20652;-68
2023/07/23 08:52:06;;;;;;;6.47;3.47;;;;;;;34.23;nan;63768.84;5091930;28;20161;-67
2023/07/23 08:54:32;;;;;;;5.25;3.45;;;;;;;34.33;nan;63868.06;5092067;28;20168;-68
2023/07/23 08:56:59;;;;;;;6.38;3.60;;;;;;;34.37;nan;63697.44;5092060;28;20212;-69
2023/07/23 08:59:26;;;;;;;5.93;3.42;;;;;;;34.52;nan;63807.78;5091870;28;20200;-70
2023/07/23 09:01:53;;;;;;;6.30;3.70;;;;;;;34.45;nan;63773.13;5095097;28;20200;-71
2023/07/23 09:04:18;;;;;;;7.82;3.75;;;;;;;34.70;nan;63841.94;5096180;28;20263;-68
2023/07/23 09:06:44;;;;;;;5.50;3.53;;;;;;;34.16;nan;63738.00;5096072;28;20225;-70
2023/07/23 09:09:12;;;;;;;6.32;3.92;;;;;;;34.27;nan;63778.78;5077604;28;20184;-68
2023/07/23 09:11:37;;;;;;;8.07;3.80;;;;;;;34.05;nan;63717.28;5095969;28;20169;-67
2023/07/23 09:14:10;;;;;;;6.65;3.78;;;;;;;34.27;nan;63664.63;5077739;28;20173;-70
2023/07/23 09:16:38;;;;;;;7.70;3.75;;;;;;;34.55;nan;63732.13;5096160;28;20161;-69
2023/07/23 09:19:04;;;;;;;7.38;3.90;;;;;;;34.50;nan;63776.81;5095901;28;20181;-69
2023/07/23 09:21:29;;;;;;;7.70;3.72;;;;;;;34.85;nan;63830.13;5095862;28;20169;-70
2023/07/23 09:23:57;;;;;;;6.00;3.95;;;;;;;34.63;nan;63738.19;5095707;28;20173;-69
2023/07/23 09:26:26;;;;;;;6.40;3.75;;;;;;;34.58;nan;63873.75;5096279;28;20164;-72
2023/07/23 09:28:54;;;;;;;8.57;4.47;;;;;;;34.32;nan;63789.91;5095702;28;20662;-68
2023/07/23 09:31:26;;;;;;;8.23;4.05;;;;;;;34.61;nan;63767.75;5095700;28;20255;-70
2023/07/23 09:34:00;;;;;;;11.27;4.18;;;;;;;34.76;nan;63785.16;5095609;28;20655;-69
2023/07/23 09:36:27;;;;;;;8.52;4.35;;;;;;;34.51;nan;63775.31;5095695;28;20188;-68
2023/07/23 09:39:12;;;;;;;8.45;4.03;;;;;;;34.41;nan;63749.88;5095433;28;20194;-70
2023/07/23 09:41:38;;;;;;;8.93;4.53;;;;;;;34.90;nan;63824.72;5095133;28;20200;-68
2023/07/23 09:44:10;;;;;;;11.43;4.72;;;;;;;35.21;nan;63849.44;5095814;28;20280;-70
2023/07/23 09:46:37;;;;;;;10.68;4.50;;;;;;;34.90;nan;63883.75;5095048;28;20173;-67
2023/07/23 09:49:03;;;;;;;15.20;5.03;;;;;;;35.00;nan;63926.69;5095307;28;20259;-70
2023/07/23 09:51:31;;;;;;;7.93;3.97;;;;;;;35.31;nan;63871.69;5095742;28;20259;-70
2023/07/23 09:54:00;;;;;;;8.27;4.55;;;;;;;35.32;nan;63883.50;5095415;28;20176;-71
2023/07/23 09:56:27;;;;;;;9.80;5.03;;;;;;;35.29;nan;63805.53;5095285;28;20215;-68
2023/07/23 09:58:53;;;;;;;8.65;4.40;;;;;;;35.43;nan;63938.81;5095193;28;20168;-70
2023/07/23 10:01:20;;;;;;;14.23;4.43;;;;;;;35.62;nan;63907.63;5094941;28;20173;-68
2023/07/23 10:03:47;;;;;;;9.30;5.00;;;;;;;35.87;nan;64011.22;5095305;28;20172;-70
2023/07/23 10:06:15;;;;;;;11.48;4.75;;;;;;;35.82;nan;63994.75;5095700;28;20236;-70
2023/07/23 10:08:43;;;;;;;12.68;5.30;;;;;;;35.53;nan;63859.38;5095102;28;20176;-69
2023/07/23 10:11:13;;;;;;;9.25;4.82;;;;;;;35.97;nan;64070.19;5094889;28;20597;-67
2023/07/23 10:13:39;;;;;;;14.43;5.25;;;;;;;35.84;nan;64063.63;5076707;28;20218;-66
2023/07/23 10:16:38;;;;;;;9.40;4.22;;;;;;;35.91;nan;64001.38;5076720;28;20194;-71
2023/07/23 10:19:04;;;;;;;8.80;4.80;;;;;;;35.77;nan;64026.22;5088018;28;20686;-69
2023/07/23 10:21:34;;;;;;;8.55;4.10;;;;;;;35.89;nan;64056.13;5094678;28;20184;-68
2023/07/23 10:24:01;;;;;;;6.93;3.67;;;;;;;35.74;nan;64017.41;5094633;28;20168;-71
2023/07/23 10:26:28;;;;;;;9.88;5.05;;;;;;;35.58;nan;63937.59;5094280;28;20212;-69
2023/07/23 10:29:09;;;;;;;8.38;4.03;;;;;;;35.47;nan;63881.69;5094638;28;20577;-70
2023/07/23 10:31:35;;;;;;;14.05;4.60;;;;;;;35.72;nan;64140.16;5076672;28;20208;-70
2023/07/23 10:34:00;;;;;;;8.07;4.32;;;;;;;35.47;nan;63816.34;5094558;28;20161;-70
2023/07/23 10:36:26;;;;;;;7.72;3.97;;;;;;;35.12;nan;63895.41;5094722;28;20255;-70
2023/07/23 10:39:14;;;;;;;11.20;4.75;;;;;;;35.51;nan;63878.94;5094212;28;20256;-69
2023/07/23 10:41:53;;;;;;;13.88;4.63;;;;;;;35.47;nan;63873.72;5062683;28;20242;-69
2023/07/23 10:44:20;;;;;;;9.18;4.82;;;;;;;35.15;nan;63909.50;4614234;28;21072;-70
2023/07/23 10:46:46;;;;;;;9.30;4.65;;;;;;;35.25;nan;63912.59;4321719;28;21536;-69
2023/07/23 10:49:29;;;;;;;9.93;5.13;;;;;;;35.57;nan;63927.88;5004700;28;20684;-67
2023/07/23 10:52:10;;;;;;;10.20;5.38;;;;;;;35.80;nan;63933.28;5073685;28;20589;-71
2023/07/23 10:54:37;;;;;;;11.65;5.10;;;;;;;36.10;nan;64066.66;5074005;28;20236;-70
2023/07/23 10:57:04;;;;;;;9.45;4.90;;;;;;;36.02;nan;63963.56;5073951;28;20223;-69
2023/07/23 10:59:30;;;;;;;9.98;4.82;;;;;;;36.05;nan;64058.16;5073337;28;20185;-67
2023/07/23 11:01:55;;;;;;;9.68;4.70;;;;;;;35.58;nan;64227.03;5074071;28;20248;-71
2023/07/23 11:04:27;;;;;;;9.77;4.35;;;;;;;35.89;nan;64010.88;5073731;28;20169;-69
2023/07/23 11:07:02;;;;;;;11.60;5.30;;;;;;;36.02;nan;64067.41;5073744;28;20165;-69
2023/07/23 11:09:33;;;;;;;9.25;4.40;;;;;;;36.06;nan;64136.56;5073711;28;20172;-68
2023/07/23 11:11:59;;;;;;;10.15;4.75;;;;;;;35.70;nan;63948.88;5073381;28;20698;-68
2023/07/23 11:14:29;;;;;;;10.43;4.60;;;;;;;35.55;nan;64000.63;5073144;28;20177;-69
2023/07/23 11:16:57;;;;;;;10.27;4.65;;;;;;;35.71;nan;64184.25;5073580;28;20173;-70
2023/07/23 11:19:25;;;;;;;11.85;5.75;;;;;;;35.63;nan;64049.84;5073371;28;20207;-68
2023/07/23 11:21:56;;;;;;;10.65;5.18;;;;;;;36.04;nan;64051.09;5055800;28;20547;-70
2023/07/23 11:24:23;;;;;;;10.80;5.05;;;;;;;35.64;nan;64064.31;5072418;28;20200;-69
2023/07/23 11:26:49;;;;;;;11.32;4.93;;;;;;;35.69;nan;64011.00;5073080;28;20173;-68
2023/07/23 11:29:15;;;;;;;12.77;4.88;;;;;;;35.87;nan;64111.78;5073311;28;20173;-69
2023/07/23 11:31:41;;;;;;;10.88;5.10;;;;;;;35.95;nan;64221.66;5073323;28;20543;-68
2023/07/23 11:34:07;;;;;;;12.88;5.10;;;;;;;35.73;nan;64077.47;5073143;28;20716;-69
2023/07/23 11:36:34;;;;;;;10.02;4.72;;;;;;;36.14;nan;64025.47;5054707;28;20177;-69
2023/07/23 11:39:01;;;;;;;10.93;5.22;;;;;;;35.86;nan;63988.16;5072845;28;20204;-68
2023/07/23 11:41:34;;;;;;;13.93;5.40;;;;;;;36.01;nan;64082.81;5072713;28;20181;-69
2023/07/23 11:44:03;;;;;;;11.63;5.38;;;;;;;36.04;nan;64021.81;5072964;28;20218;-68